Blue Ridge, New York
Current Conditions -  °F | °C
As of 5:35 AM on Thursday 23 Oct 2014 (Local Time) from K6B0 Reporting Station
Overcast Overcast  
Wind Chill: 39°   Ceiling: 1600
Heat Index: 43°   Visibility: 10mi
Dew Point: 40°   Wind: 7mph
Humidity: 90%   Direction: 340°NNW
Pressure: 29.95"   Gusts: NA
Location:  43.8504°N, 73.7678°W
Report Text: K6B0 230935Z AUTO 34006KT 10SM OVC016 06/05 A2995 RMK AO2 T00610045
Loading
Personal Weather Stations






























Interactive Weather Map New forecast layout! Learn more

10-Day Weather Forecast

Advertisements
Track Severe Weather on mobile